createdAt,value
2019-01-19T00:11:02.866Z,-0.8
2019-01-19T00:26:13.147Z,-0.8
2019-01-19T00:41:23.435Z,-1
2019-01-19T00:56:26.158Z,-1
2019-01-19T01:11:43.858Z,-1
2019-01-19T01:26:53.932Z,-1.4
2019-01-19T01:42:03.997Z,-1.8
2019-01-19T01:57:13.881Z,-1.9
2019-01-19T02:12:23.743Z,-1.9
2019-01-19T02:27:33.686Z,-1.8
2019-01-19T02:42:43.690Z,-2
2019-01-19T02:57:53.464Z,-2
2019-01-19T03:13:02.025Z,-2.1
2019-01-19T03:28:13.145Z,-2.1
2019-01-19T03:43:23.022Z,-2.2
2019-01-19T03:58:32.817Z,-2.4
2019-01-19T04:13:37.959Z,-2.4
2019-01-19T04:28:52.445Z,-2.2
2019-01-19T04:44:02.310Z,-2
2019-01-19T04:59:12.132Z,-2.1
2019-01-19T05:14:13.893Z,-2.4
2019-01-19T05:29:31.654Z,-2.5
2019-01-19T05:44:41.349Z,-2.6
2019-01-19T05:59:51.086Z,-2.7
2019-01-19T06:15:00.732Z,-2.6
2019-01-19T06:30:10.393Z,-2.7
2019-01-19T06:45:20.040Z,-2.7
2019-01-19T07:00:29.735Z,-2.8
2019-01-19T07:15:39.378Z,-2.9
2019-01-19T07:30:48.631Z,-2.9
2019-01-19T07:45:58.589Z,-2.9
2019-01-19T08:01:08.221Z,-2.7
2019-01-19T08:16:17.927Z,-2.5
2019-01-19T08:31:24.566Z,-2.3
2019-01-19T08:46:37.564Z,-2.1
2019-01-19T09:01:47.649Z,-1.8
2019-01-19T09:16:58.209Z,-1.5
2019-01-19T09:32:02.103Z,-1
2019-01-19T09:47:18.213Z,-0.5
2019-01-19T10:02:28.766Z,0.3
2019-01-19T10:17:39.781Z,1.2
2019-01-19T10:32:51.215Z,2.1
2019-01-19T10:48:03.998Z,3.3
2019-01-19T11:03:18.553Z,4.7
2019-01-19T11:18:34.699Z,5.7
2019-01-19T11:33:51.042Z,6
2019-01-19T11:49:05.209Z,6.6
2019-01-19T12:04:15.148Z,7.2
2019-01-19T12:19:32.881Z,7.4
2019-01-19T12:34:48.059Z,7.5
2019-01-19T12:50:04.899Z,6.3
2019-01-19T13:05:21.414Z,6
2019-01-19T13:20:25.782Z,5.3
2019-01-19T13:35:51.736Z,5
2019-01-19T13:51:14.214Z,4.9
2019-01-19T14:06:32.402Z,4.9
2019-01-19T14:21:49.745Z,5
2019-01-19T14:37:05.195Z,5
2019-01-19T14:52:19.617Z,4.4
2019-01-19T15:07:25.463Z,4
2019-01-19T15:22:46.591Z,3.6
2019-01-19T15:37:59.081Z,3.3
2019-01-19T15:53:10.797Z,3.1
2019-01-19T16:08:22.355Z,2.7
2019-01-19T16:23:30.574Z,2.3
2019-01-19T16:38:44.911Z,1.7
2019-01-19T16:53:56.019Z,1.4
2019-01-19T17:09:06.938Z,1.2
2019-01-19T17:24:09.368Z,0.8
2019-01-19T17:39:28.583Z,0.6
2019-01-19T17:54:39.343Z,0.6
2019-01-19T18:09:50.046Z,0.4
2019-01-19T18:25:00.667Z,0.2
2019-01-19T18:40:11.317Z,0.1
2019-01-19T18:55:21.836Z,0.1
2019-01-19T19:10:32.313Z,-0.1
2019-01-19T19:25:42.860Z,-0.3
2019-01-19T19:40:50.010Z,-0.3
2019-01-19T19:56:03.799Z,-0.5
2019-01-19T20:11:14.051Z,-0.8
2019-01-19T20:26:24.505Z,-0.8
2019-01-19T20:41:26.934Z,-1.1
2019-01-19T20:56:44.703Z,-1.2
2019-01-19T21:11:54.858Z,-1.4
2019-01-19T21:27:05.551Z,0.4
2019-01-19T21:42:16.382Z,-0.3
2019-01-19T21:57:26.703Z,-1.1
2019-01-19T22:12:36.863Z,-1.3
2019-01-19T22:27:46.924Z,-1.6
2019-01-19T22:42:56.915Z,-1.8
2019-01-19T22:58:03.162Z,-1.8
2019-01-19T23:13:16.828Z,-1.9
2019-01-19T23:28:26.722Z,-2
2019-01-19T23:43:36.761Z,-2
2019-01-19T23:58:38.554Z,-1.9
